sensor_id;sensor_type;location;lat;lon;timestamp;P1;durP1;ratioP1;P2;durP2;ratioP2
7835;SDS011;3963;42.658;23.298;2022-07-22T00:01:10;6.70;;;4.63;;
7835;SDS011;3963;42.658;23.298;2022-07-22T00:03:37;8.00;;;5.33;;
7835;SDS011;3963;42.658;23.298;2022-07-22T00:06:04;10.70;;;4.80;;
7835;SDS011;3963;42.658;23.298;2022-07-22T00:08:33;11.67;;;4.87;;
7835;SDS011;3963;42.658;23.298;2022-07-22T00:11:00;9.50;;;5.10;;
7835;SDS011;3963;42.658;23.298;2022-07-22T00:13:26;7.97;;;4.97;;
7835;SDS011;3963;42.658;23.298;2022-07-22T00:15:53;8.43;;;5.10;;
7835;SDS011;3963;42.658;23.298;2022-07-22T00:18:23;9.90;;;5.30;;
7835;SDS011;3963;42.658;23.298;2022-07-22T00:20:50;9.43;;;5.90;;
7835;SDS011;3963;42.658;23.298;2022-07-22T00:23:17;10.73;;;5.50;;
7835;SDS011;3963;42.658;23.298;2022-07-22T00:25:46;7.03;;;5.23;;
7835;SDS011;3963;42.658;23.298;2022-07-22T00:28:13;9.17;;;5.23;;
7835;SDS011;3963;42.658;23.298;2022-07-22T00:30:39;9.27;;;5.90;;
7835;SDS011;3963;42.658;23.298;2022-07-22T00:33:07;13.00;;;5.50;;
7835;SDS011;3963;42.658;23.298;2022-07-22T00:35:33;8.43;;;5.43;;
7835;SDS011;3963;42.658;23.298;2022-07-22T00:38:00;9.40;;;5.73;;
7835;SDS011;3963;42.658;23.298;2022-07-22T00:40:27;7.13;;;5.13;;
7835;SDS011;3963;42.658;23.298;2022-07-22T00:42:55;12.27;;;5.90;;
7835;SDS011;3963;42.658;23.298;2022-07-22T00:45:22;8.83;;;6.03;;
7835;SDS011;3963;42.658;23.298;2022-07-22T00:47:49;10.27;;;5.43;;
7835;SDS011;3963;42.658;23.298;2022-07-22T00:50:16;8.07;;;5.13;;
7835;SDS011;3963;42.658;23.298;2022-07-22T00:52:44;10.20;;;5.60;;
7835;SDS011;3963;42.658;23.298;2022-07-22T00:55:12;11.27;;;5.53;;
7835;SDS011;3963;42.658;23.298;2022-07-22T00:57:40;9.53;;;5.70;;
7835;SDS011;3963;42.658;23.298;2022-07-22T01:00:09;10.03;;;5.27;;
7835;SDS011;3963;42.658;23.298;2022-07-22T01:02:41;7.87;;;5.80;;
7835;SDS011;3963;42.658;23.298;2022-07-22T01:05:08;9.10;;;5.23;;
7835;SDS011;3963;42.658;23.298;2022-07-22T01:07:36;7.13;;;5.20;;
7835;SDS011;3963;42.658;23.298;2022-07-22T01:10:04;9.83;;;4.87;;
7835;SDS011;3963;42.658;23.298;2022-07-22T01:12:32;9.57;;;5.90;;
7835;SDS011;3963;42.658;23.298;2022-07-22T01:14:59;12.00;;;5.47;;
7835;SDS011;3963;42.658;23.298;2022-07-22T01:17:27;9.80;;;5.50;;
7835;SDS011;3963;42.658;23.298;2022-07-22T01:19:59;8.57;;;5.80;;
7835;SDS011;3963;42.658;23.298;2022-07-22T01:22:27;10.83;;;5.67;;
7835;SDS011;3963;42.658;23.298;2022-07-22T01:24:54;12.23;;;5.77;;
7835;SDS011;3963;42.658;23.298;2022-07-22T01:27:21;9.17;;;6.00;;
7835;SDS011;3963;42.658;23.298;2022-07-22T01:29:47;10.40;;;6.23;;
7835;SDS011;3963;42.658;23.298;2022-07-22T01:32:14;9.23;;;5.83;;
7835;SDS011;3963;42.658;23.298;2022-07-22T01:34:41;9.13;;;5.70;;
7835;SDS011;3963;42.658;23.298;2022-07-22T01:37:10;8.57;;;5.57;;
7835;SDS011;3963;42.658;23.298;2022-07-22T01:39:37;8.73;;;5.30;;
7835;SDS011;3963;42.658;23.298;2022-07-22T01:42:04;10.00;;;5.87;;
7835;SDS011;3963;42.658;23.298;2022-07-22T01:44:31;10.83;;;6.10;;
7835;SDS011;3963;42.658;23.298;2022-07-22T01:46:59;8.10;;;5.87;;
7835;SDS011;3963;42.658;23.298;2022-07-22T01:49:26;10.37;;;5.87;;
7835;SDS011;3963;42.658;23.298;2022-07-22T01:51:53;9.50;;;5.90;;
7835;SDS011;3963;42.658;23.298;2022-07-22T01:54:21;8.90;;;6.00;;
7835;SDS011;3963;42.658;23.298;2022-07-22T01:56:48;11.07;;;5.63;;
7835;SDS011;3963;42.658;23.298;2022-07-22T01:59:15;10.70;;;6.13;;
7835;SDS011;3963;42.658;23.298;2022-07-22T02:01:42;10.27;;;5.87;;
7835;SDS011;3963;42.658;23.298;2022-07-22T02:04:10;7.47;;;5.40;;
7835;SDS011;3963;42.658;23.298;2022-07-22T02:06:37;10.33;;;6.00;;
7835;SDS011;3963;42.658;23.298;2022-07-22T02:09:04;11.37;;;6.23;;
7835;SDS011;3963;42.658;23.298;2022-07-22T02:11:34;10.23;;;5.67;;
7835;SDS011;3963;42.658;23.298;2022-07-22T02:14:01;7.53;;;6.50;;
7835;SDS011;3963;42.658;23.298;2022-07-22T02:16:28;11.97;;;6.37;;
7835;SDS011;3963;42.658;23.298;2022-07-22T02:18:55;11.27;;;5.77;;
7835;SDS011;3963;42.658;23.298;2022-07-22T02:21:22;11.50;;;6.23;;
7835;SDS011;3963;42.658;23.298;2022-07-22T02:23:49;8.50;;;5.60;;
7835;SDS011;3963;42.658;23.298;2022-07-22T02:26:16;10.93;;;6.37;;
7835;SDS011;3963;42.658;23.298;2022-07-22T02:28:44;13.03;;;6.00;;
7835;SDS011;3963;42.658;23.298;2022-07-22T02:31:11;8.83;;;6.27;;
7835;SDS011;3963;42.658;23.298;2022-07-22T02:33:38;9.73;;;6.03;;
7835;SDS011;3963;42.658;23.298;2022-07-22T02:36:06;11.30;;;6.17;;
7835;SDS011;3963;42.658;23.298;2022-07-22T02:38:33;12.83;;;6.57;;
7835;SDS011;3963;42.658;23.298;2022-07-22T02:41:00;12.03;;;5.80;;
7835;SDS011;3963;42.658;23.298;2022-07-22T02:43:27;13.17;;;6.20;;
7835;SDS011;3963;42.658;23.298;2022-07-22T02:45:55;11.70;;;6.97;;
7835;SDS011;3963;42.658;23.298;2022-07-22T02:48:22;11.37;;;6.40;;
7835;SDS011;3963;42.658;23.298;2022-07-22T02:50:49;11.20;;;6.53;;
7835;SDS011;3963;42.658;23.298;2022-07-22T02:53:15;12.73;;;6.43;;
7835;SDS011;3963;42.658;23.298;2022-07-22T02:55:42;11.93;;;6.07;;
7835;SDS011;3963;42.658;23.298;2022-07-22T02:58:09;11.53;;;5.97;;
7835;SDS011;3963;42.658;23.298;2022-07-22T03:00:37;8.47;;;5.33;;
7835;SDS011;3963;42.658;23.298;2022-07-22T03:03:05;11.03;;;6.60;;
7835;SDS011;3963;42.658;23.298;2022-07-22T03:05:32;15.23;;;6.27;;
7835;SDS011;3963;42.658;23.298;2022-07-22T03:07:59;15.67;;;7.17;;
7835;SDS011;3963;42.658;23.298;2022-07-22T03:10:26;14.07;;;6.53;;
7835;SDS011;3963;42.658;23.298;2022-07-22T03:12:53;11.00;;;7.37;;
7835;SDS011;3963;42.658;23.298;2022-07-22T03:15:19;12.20;;;7.10;;
7835;SDS011;3963;42.658;23.298;2022-07-22T03:17:46;13.20;;;6.27;;
7835;SDS011;3963;42.658;23.298;2022-07-22T03:20:15;8.50;;;5.90;;
7835;SDS011;3963;42.658;23.298;2022-07-22T03:22:41;8.97;;;6.50;;
7835;SDS011;3963;42.658;23.298;2022-07-22T03:25:08;9.23;;;6.40;;
7835;SDS011;3963;42.658;23.298;2022-07-22T03:27:36;12.63;;;6.90;;
7835;SDS011;3963;42.658;23.298;2022-07-22T03:30:03;11.50;;;7.20;;
7835;SDS011;3963;42.658;23.298;2022-07-22T03:32:30;11.50;;;6.83;;
7835;SDS011;3963;42.658;23.298;2022-07-22T03:34:58;9.43;;;6.30;;
7835;SDS011;3963;42.658;23.298;2022-07-22T03:37:26;9.57;;;6.30;;
7835;SDS011;3963;42.658;23.298;2022-07-22T03:39:53;9.27;;;6.60;;
7835;SDS011;3963;42.658;23.298;2022-07-22T03:42:20;13.23;;;7.00;;
7835;SDS011;3963;42.658;23.298;2022-07-22T03:44:47;10.90;;;6.77;;
7835;SDS011;3963;42.658;23.298;2022-07-22T03:47:17;9.83;;;6.50;;
7835;SDS011;3963;42.658;23.298;2022-07-22T03:49:44;10.23;;;6.30;;
7835;SDS011;3963;42.658;23.298;2022-07-22T03:52:11;15.43;;;7.03;;
7835;SDS011;3963;42.658;23.298;2022-07-22T03:54:40;13.87;;;7.10;;
7835;SDS011;3963;42.658;23.298;2022-07-22T03:57:08;10.17;;;6.80;;
7835;SDS011;3963;42.658;23.298;2022-07-22T03:59:36;12.40;;;7.03;;
7835;SDS011;3963;42.658;23.298;2022-07-22T04:02:03;13.53;;;7.07;;
7835;SDS011;3963;42.658;23.298;2022-07-22T04:04:30;7.17;;;6.13;;
7835;SDS011;3963;42.658;23.298;2022-07-22T04:06:57;15.90;;;7.90;;
7835;SDS011;3963;42.658;23.298;2022-07-22T04:09:24;9.37;;;6.77;;
7835;SDS011;3963;42.658;23.298;2022-07-22T04:11:52;16.80;;;7.20;;
7835;SDS011;3963;42.658;23.298;2022-07-22T04:14:19;9.20;;;6.80;;
7835;SDS011;3963;42.658;23.298;2022-07-22T04:16:46;17.37;;;7.10;;
7835;SDS011;3963;42.658;23.298;2022-07-22T04:19:13;13.23;;;6.90;;
7835;SDS011;3963;42.658;23.298;2022-07-22T04:21:40;12.87;;;7.40;;
7835;SDS011;3963;42.658;23.298;2022-07-22T04:24:07;13.50;;;7.17;;
7835;SDS011;3963;42.658;23.298;2022-07-22T04:26:35;16.57;;;7.37;;
7835;SDS011;3963;42.658;23.298;2022-07-22T04:29:04;13.20;;;7.33;;
7835;SDS011;3963;42.658;23.298;2022-07-22T04:31:31;13.47;;;7.77;;
7835;SDS011;3963;42.658;23.298;2022-07-22T04:33:58;12.50;;;7.60;;
7835;SDS011;3963;42.658;23.298;2022-07-22T04:36:25;17.00;;;7.20;;
7835;SDS011;3963;42.658;23.298;2022-07-22T04:38:52;11.87;;;7.33;;
7835;SDS011;3963;42.658;23.298;2022-07-22T04:41:19;12.03;;;7.40;;
7835;SDS011;3963;42.658;23.298;2022-07-22T04:43:45;13.40;;;7.27;;
7835;SDS011;3963;42.658;23.298;2022-07-22T04:46:14;13.70;;;7.17;;
7835;SDS011;3963;42.658;23.298;2022-07-22T04:48:41;14.80;;;7.70;;
7835;SDS011;3963;42.658;23.298;2022-07-22T04:51:08;13.20;;;8.13;;
7835;SDS011;3963;42.658;23.298;2022-07-22T04:53:35;14.33;;;8.60;;
7835;SDS011;3963;42.658;23.298;2022-07-22T04:56:02;16.27;;;8.70;;
7835;SDS011;3963;42.658;23.298;2022-07-22T04:58:29;14.07;;;8.00;;
7835;SDS011;3963;42.658;23.298;2022-07-22T05:00:56;15.30;;;8.33;;
7835;SDS011;3963;42.658;23.298;2022-07-22T05:03:24;11.33;;;7.30;;
7835;SDS011;3963;42.658;23.298;2022-07-22T05:05:51;13.37;;;7.40;;
7835;SDS011;3963;42.658;23.298;2022-07-22T05:08:18;13.27;;;8.17;;
7835;SDS011;3963;42.658;23.298;2022-07-22T05:10:45;11.63;;;8.33;;
7835;SDS011;3963;42.658;23.298;2022-07-22T05:13:12;15.20;;;7.73;;
7835;SDS011;3963;42.658;23.298;2022-07-22T05:15:39;13.10;;;7.60;;
7835;SDS011;3963;42.658;23.298;2022-07-22T05:18:06;17.13;;;7.77;;
7835;SDS011;3963;42.658;23.298;2022-07-22T05:20:34;18.70;;;7.80;;
7835;SDS011;3963;42.658;23.298;2022-07-22T05:23:01;13.30;;;7.60;;
7835;SDS011;3963;42.658;23.298;2022-07-22T05:25:29;15.47;;;7.50;;
7835;SDS011;3963;42.658;23.298;2022-07-22T05:27:55;15.73;;;7.63;;
7835;SDS011;3963;42.658;23.298;2022-07-22T05:30:23;9.93;;;7.63;;
7835;SDS011;3963;42.658;23.298;2022-07-22T05:32:50;10.30;;;8.20;;
7835;SDS011;3963;42.658;23.298;2022-07-22T05:35:17;15.30;;;7.80;;
7835;SDS011;3963;42.658;23.298;2022-07-22T05:37:46;17.47;;;7.50;;
7835;SDS011;3963;42.658;23.298;2022-07-22T05:40:13;11.83;;;8.50;;
7835;SDS011;3963;42.658;23.298;2022-07-22T05:42:40;11.20;;;7.80;;
7835;SDS011;3963;42.658;23.298;2022-07-22T05:45:07;15.80;;;7.80;;
7835;SDS011;3963;42.658;23.298;2022-07-22T05:47:35;16.23;;;7.27;;
7835;SDS011;3963;42.658;23.298;2022-07-22T05:50:02;12.63;;;7.77;;
7835;SDS011;3963;42.658;23.298;2022-07-22T05:52:29;19.70;;;7.87;;
7835;SDS011;3963;42.658;23.298;2022-07-22T05:55:00;15.50;;;7.67;;
7835;SDS011;3963;42.658;23.298;2022-07-22T05:57:27;13.00;;;6.80;;
7835;SDS011;3963;42.658;23.298;2022-07-22T05:59:54;16.17;;;7.43;;
7835;SDS011;3963;42.658;23.298;2022-07-22T06:02:21;18.00;;;7.20;;
7835;SDS011;3963;42.658;23.298;2022-07-22T06:04:48;11.90;;;7.00;;
7835;SDS011;3963;42.658;23.298;2022-07-22T06:07:15;12.17;;;7.10;;
7835;SDS011;3963;42.658;23.298;2022-07-22T06:09:42;12.83;;;6.57;;
7835;SDS011;3963;42.658;23.298;2022-07-22T06:12:11;14.37;;;6.63;;
7835;SDS011;3963;42.658;23.298;2022-07-22T06:14:37;16.70;;;6.30;;
7835;SDS011;3963;42.658;23.298;2022-07-22T06:17:05;14.53;;;6.33;;
7835;SDS011;3963;42.658;23.298;2022-07-22T06:19:32;13.93;;;6.80;;
7835;SDS011;3963;42.658;23.298;2022-07-22T06:21:59;12.70;;;7.27;;
7835;SDS011;3963;42.658;23.298;2022-07-22T06:24:25;14.97;;;6.93;;
7835;SDS011;3963;42.658;23.298;2022-07-22T06:26:52;21.33;;;7.63;;
7835;SDS011;3963;42.658;23.298;2022-07-22T06:29:21;13.97;;;7.07;;
7835;SDS011;3963;42.658;23.298;2022-07-22T06:31:48;17.53;;;7.60;;
7835;SDS011;3963;42.658;23.298;2022-07-22T06:34:15;14.17;;;7.00;;
7835;SDS011;3963;42.658;23.298;2022-07-22T06:36:42;11.07;;;7.10;;
7835;SDS011;3963;42.658;23.298;2022-07-22T06:39:09;14.30;;;6.87;;
7835;SDS011;3963;42.658;23.298;2022-07-22T06:41:35;14.33;;;7.00;;
7835;SDS011;3963;42.658;23.298;2022-07-22T06:44:02;11.30;;;6.33;;
7835;SDS011;3963;42.658;23.298;2022-07-22T06:46:31;12.97;;;5.77;;
7835;SDS011;3963;42.658;23.298;2022-07-22T06:48:59;11.10;;;5.83;;
7835;SDS011;3963;42.658;23.298;2022-07-22T06:51:26;10.40;;;5.40;;
7835;SDS011;3963;42.658;23.298;2022-07-22T06:53:53;9.30;;;5.90;;
7835;SDS011;3963;42.658;23.298;2022-07-22T06:56:19;11.63;;;6.13;;
7835;SDS011;3963;42.658;23.298;2022-07-22T06:58:46;12.27;;;5.40;;
7835;SDS011;3963;42.658;23.298;2022-07-22T07:01:13;12.47;;;5.90;;
7835;SDS011;3963;42.658;23.298;2022-07-22T07:03:41;12.10;;;5.87;;
7835;SDS011;3963;42.658;23.298;2022-07-22T07:06:09;11.27;;;6.03;;
7835;SDS011;3963;42.658;23.298;2022-07-22T07:08:38;9.13;;;5.38;;
7835;SDS011;3963;42.658;23.298;2022-07-22T07:11:05;12.95;;;5.85;;
7835;SDS011;3963;42.658;23.298;2022-07-22T07:13:32;13.70;;;5.25;;
7835;SDS011;3963;42.658;23.298;2022-07-22T07:15:59;15.18;;;5.15;;
7835;SDS011;3963;42.658;23.298;2022-07-22T07:18:26;11.80;;;4.88;;
7835;SDS011;3963;42.658;23.298;2022-07-22T07:20:54;14.15;;;5.10;;
7835;SDS011;3963;42.658;23.298;2022-07-22T07:23:21;7.82;;;4.80;;
7835;SDS011;3963;42.658;23.298;2022-07-22T07:25:48;11.00;;;5.30;;
7835;SDS011;3963;42.658;23.298;2022-07-22T07:28:15;10.43;;;5.10;;
7835;SDS011;3963;42.658;23.298;2022-07-22T07:30:42;11.77;;;5.80;;
7835;SDS011;3963;42.658;23.298;2022-07-22T07:33:09;12.05;;;4.63;;
7835;SDS011;3963;42.658;23.298;2022-07-22T07:35:36;7.70;;;5.13;;
7835;SDS011;3963;42.658;23.298;2022-07-22T07:38:05;11.48;;;5.00;;
7835;SDS011;3963;42.658;23.298;2022-07-22T07:40:32;9.77;;;5.03;;
7835;SDS011;3963;42.658;23.298;2022-07-22T07:42:59;10.90;;;5.22;;
7835;SDS011;3963;42.658;23.298;2022-07-22T07:45:26;11.57;;;4.75;;
7835;SDS011;3963;42.658;23.298;2022-07-22T07:47:53;11.77;;;4.65;;
7835;SDS011;3963;42.658;23.298;2022-07-22T07:50:20;10.27;;;4.72;;
7835;SDS011;3963;42.658;23.298;2022-07-22T07:52:47;13.85;;;4.97;;
7835;SDS011;3963;42.658;23.298;2022-07-22T07:55:15;7.60;;;5.10;;
7835;SDS011;3963;42.658;23.298;2022-07-22T07:57:42;11.98;;;4.78;;
7835;SDS011;3963;42.658;23.298;2022-07-22T08:00:12;8.65;;;4.82;;
7835;SDS011;3963;42.658;23.298;2022-07-22T08:02:39;10.35;;;4.72;;
7835;SDS011;3963;42.658;23.298;2022-07-22T08:05:07;7.88;;;4.68;;
7835;SDS011;3963;42.658;23.298;2022-07-22T08:07:34;13.48;;;4.65;;
7835;SDS011;3963;42.658;23.298;2022-07-22T08:10:02;8.23;;;3.95;;
7835;SDS011;3963;42.658;23.298;2022-07-22T08:12:31;7.90;;;4.60;;
7835;SDS011;3963;42.658;23.298;2022-07-22T08:14:58;5.50;;;3.88;;
7835;SDS011;3963;42.658;23.298;2022-07-22T08:17:25;9.65;;;4.30;;
7835;SDS011;3963;42.658;23.298;2022-07-22T08:19:52;8.07;;;4.85;;
7835;SDS011;3963;42.658;23.298;2022-07-22T08:22:19;9.95;;;3.88;;
7835;SDS011;3963;42.658;23.298;2022-07-22T08:24:45;7.30;;;3.97;;
7835;SDS011;3963;42.658;23.298;2022-07-22T08:27:12;7.43;;;4.28;;
7835;SDS011;3963;42.658;23.298;2022-07-22T08:29:41;8.60;;;4.63;;
7835;SDS011;3963;42.658;23.298;2022-07-22T08:32:07;6.22;;;4.68;;
7835;SDS011;3963;42.658;23.298;2022-07-22T08:34:34;11.35;;;4.32;;
7835;SDS011;3963;42.658;23.298;2022-07-22T08:37:02;8.35;;;4.38;;
7835;SDS011;3963;42.658;23.298;2022-07-22T08:39:28;9.05;;;4.55;;
7835;SDS011;3963;42.658;23.298;2022-07-22T08:41:56;15.30;;;6.10;;
7835;SDS011;3963;42.658;23.298;2022-07-22T08:44:23;11.68;;;5.15;;
7835;SDS011;3963;42.658;23.298;2022-07-22T08:46:51;7.75;;;4.72;;
7835;SDS011;3963;42.658;23.298;2022-07-22T08:49:18;8.95;;;4.25;;
7835;SDS011;3963;42.658;23.298;2022-07-22T08:51:45;9.98;;;5.72;;
7835;SDS011;3963;42.658;23.298;2022-07-22T08:54:12;7.25;;;4.68;;
7835;SDS011;3963;42.658;23.298;2022-07-22T08:56:39;8.07;;;4.15;;
7835;SDS011;3963;42.658;23.298;2022-07-22T08:59:07;8.23;;;4.30;;
7835;SDS011;3963;42.658;23.298;2022-07-22T09:01:34;4.82;;;4.32;;
7835;SDS011;3963;42.658;23.298;2022-07-22T09:04:03;8.65;;;3.83;;
7835;SDS011;3963;42.658;23.298;2022-07-22T09:06:30;10.45;;;4.57;;
7835;SDS011;3963;42.658;23.298;2022-07-22T09:08:59;7.43;;;4.22;;
7835;SDS011;3963;42.658;23.298;2022-07-22T09:11:29;6.10;;;4.20;;
7835;SDS011;3963;42.658;23.298;2022-07-22T09:13:57;7.28;;;4.47;;
7835;SDS011;3963;42.658;23.298;2022-07-22T09:19:12;8.52;;;4.80;;
7835;SDS011;3963;42.658;23.298;2022-07-22T09:21:40;6.88;;;4.30;;
7835;SDS011;3963;42.658;23.298;2022-07-22T09:24:12;8.93;;;4.88;;
7835;SDS011;3963;42.658;23.298;2022-07-22T09:26:53;9.48;;;4.25;;
7835;SDS011;3963;42.658;23.298;2022-07-22T09:29:21;6.53;;;3.65;;
7835;SDS011;3963;42.658;23.298;2022-07-22T09:31:49;10.77;;;4.55;;
7835;SDS011;3963;42.658;23.298;2022-07-22T09:34:26;6.93;;;4.43;;
7835;SDS011;3963;42.658;23.298;2022-07-22T09:36:56;5.63;;;4.25;;
7835;SDS011;3963;42.658;23.298;2022-07-22T09:39:27;6.95;;;4.80;;
7835;SDS011;3963;42.658;23.298;2022-07-22T09:41:56;7.72;;;4.45;;
7835;SDS011;3963;42.658;23.298;2022-07-22T09:44:23;5.93;;;4.32;;
7835;SDS011;3963;42.658;23.298;2022-07-22T09:46:50;7.90;;;4.05;;
7835;SDS011;3963;42.658;23.298;2022-07-22T09:49:30;7.18;;;4.35;;
7835;SDS011;3963;42.658;23.298;2022-07-22T09:51:59;16.52;;;13.50;;
7835;SDS011;3963;42.658;23.298;2022-07-22T09:54:26;8.48;;;5.35;;
7835;SDS011;3963;42.658;23.298;2022-07-22T09:56:54;8.85;;;4.80;;
7835;SDS011;3963;42.658;23.298;2022-07-22T09:59:21;11.52;;;4.05;;
7835;SDS011;3963;42.658;23.298;2022-07-22T10:01:49;7.72;;;3.83;;
7835;SDS011;3963;42.658;23.298;2022-07-22T10:04:20;8.77;;;4.25;;
7835;SDS011;3963;42.658;23.298;2022-07-22T10:06:51;5.47;;;4.03;;
7835;SDS011;3963;42.658;23.298;2022-07-22T10:09:22;6.53;;;4.40;;
7835;SDS011;3963;42.658;23.298;2022-07-22T10:11:50;6.38;;;4.22;;
7835;SDS011;3963;42.658;23.298;2022-07-22T10:14:17;7.82;;;3.85;;
7835;SDS011;3963;42.658;23.298;2022-07-22T10:16:46;8.48;;;4.40;;
7835;SDS011;3963;42.658;23.298;2022-07-22T10:19:14;9.40;;;4.38;;
7835;SDS011;3963;42.658;23.298;2022-07-22T10:21:41;7.93;;;4.55;;
7835;SDS011;3963;42.658;23.298;2022-07-22T10:24:13;6.63;;;4.38;;
7835;SDS011;3963;42.658;23.298;2022-07-22T10:26:46;9.38;;;4.18;;
7835;SDS011;3963;42.658;23.298;2022-07-22T10:29:29;7.35;;;4.72;;
7835;SDS011;3963;42.658;23.298;2022-07-22T10:37:51;13.63;;;4.95;;
7835;SDS011;3963;42.658;23.298;2022-07-22T10:40:23;10.27;;;4.25;;
7835;SDS011;3963;42.658;23.298;2022-07-22T10:43:03;9.85;;;4.43;;
7835;SDS011;3963;42.658;23.298;2022-07-22T10:45:41;8.02;;;4.45;;
7835;SDS011;3963;42.658;23.298;2022-07-22T10:48:12;5.93;;;4.03;;
7835;SDS011;3963;42.658;23.298;2022-07-22T10:50:47;7.47;;;4.32;;
7835;SDS011;3963;42.658;23.298;2022-07-22T10:53:21;6.40;;;4.10;;
7835;SDS011;3963;42.658;23.298;2022-07-22T10:56:06;7.93;;;4.05;;
7835;SDS011;3963;42.658;23.298;2022-07-22T11:01:34;6.25;;;4.28;;
7835;SDS011;3963;42.658;23.298;2022-07-22T11:04:12;7.82;;;4.97;;
7835;SDS011;3963;42.658;23.298;2022-07-22T11:06:41;10.07;;;4.55;;
7835;SDS011;3963;42.658;23.298;2022-07-22T11:09:09;11.98;;;4.80;;
7835;SDS011;3963;42.658;23.298;2022-07-22T11:11:40;7.40;;;3.88;;
7835;SDS011;3963;42.658;23.298;2022-07-22T11:14:12;7.95;;;4.25;;
7835;SDS011;3963;42.658;23.298;2022-07-22T11:16:45;7.47;;;4.43;;
7835;SDS011;3963;42.658;23.298;2022-07-22T11:19:13;6.28;;;4.13;;
7835;SDS011;3963;42.658;23.298;2022-07-22T11:21:40;7.18;;;3.92;;
7835;SDS011;3963;42.658;23.298;2022-07-22T11:24:07;5.88;;;4.90;;
7835;SDS011;3963;42.658;23.298;2022-07-22T11:26:40;9.80;;;4.47;;
7835;SDS011;3963;42.658;23.298;2022-07-22T11:29:09;7.43;;;5.13;;
7835;SDS011;3963;42.658;23.298;2022-07-22T11:31:37;7.80;;;4.53;;
7835;SDS011;3963;42.658;23.298;2022-07-22T11:34:06;8.75;;;4.35;;
7835;SDS011;3963;42.658;23.298;2022-07-22T11:36:34;5.28;;;4.18;;
7835;SDS011;3963;42.658;23.298;2022-07-22T11:39:03;6.18;;;4.32;;
7835;SDS011;3963;42.658;23.298;2022-07-22T11:41:30;8.70;;;5.10;;
7835;SDS011;3963;42.658;23.298;2022-07-22T11:43:58;7.20;;;4.82;;
7835;SDS011;3963;42.658;23.298;2022-07-22T11:46:26;7.47;;;4.95;;
7835;SDS011;3963;42.658;23.298;2022-07-22T11:48:53;6.80;;;4.45;;
7835;SDS011;3963;42.658;23.298;2022-07-22T11:51:27;10.77;;;4.18;;
7835;SDS011;3963;42.658;23.298;2022-07-22T11:53:55;6.40;;;4.13;;
7835;SDS011;3963;42.658;23.298;2022-07-22T11:56:23;5.50;;;4.40;;
7835;SDS011;3963;42.658;23.298;2022-07-22T11:58:50;8.88;;;4.78;;
7835;SDS011;3963;42.658;23.298;2022-07-22T12:01:21;8.57;;;4.47;;
7835;SDS011;3963;42.658;23.298;2022-07-22T12:03:50;7.78;;;4.20;;
7835;SDS011;3963;42.658;23.298;2022-07-22T12:06:18;7.72;;;4.50;;
7835;SDS011;3963;42.658;23.298;2022-07-22T12:08:47;9.50;;;4.90;;
7835;SDS011;3963;42.658;23.298;2022-07-22T12:11:16;5.65;;;4.30;;
7835;SDS011;3963;42.658;23.298;2022-07-22T12:13:45;7.15;;;4.50;;
7835;SDS011;3963;42.658;23.298;2022-07-22T12:16:16;7.75;;;4.68;;
7835;SDS011;3963;42.658;23.298;2022-07-22T12:18:53;9.25;;;4.25;;
7835;SDS011;3963;42.658;23.298;2022-07-22T12:21:22;7.90;;;4.65;;
7835;SDS011;3963;42.658;23.298;2022-07-22T12:23:50;8.85;;;4.30;;
7835;SDS011;3963;42.658;23.298;2022-07-22T12:26:18;4.72;;;3.88;;
7835;SDS011;3963;42.658;23.298;2022-07-22T12:28:46;8.30;;;4.57;;
7835;SDS011;3963;42.658;23.298;2022-07-22T12:31:12;6.80;;;4.28;;
7835;SDS011;3963;42.658;23.298;2022-07-22T12:33:50;7.13;;;4.22;;
7835;SDS011;3963;42.658;23.298;2022-07-22T12:36:17;6.53;;;4.70;;
7835;SDS011;3963;42.658;23.298;2022-07-22T12:38:44;7.85;;;4.60;;
7835;SDS011;3963;42.658;23.298;2022-07-22T12:41:27;6.60;;;4.25;;
7835;SDS011;3963;42.658;23.298;2022-07-22T12:43:54;11.50;;;4.82;;
7835;SDS011;3963;42.658;23.298;2022-07-22T12:46:22;11.13;;;4.18;;
7835;SDS011;3963;42.658;23.298;2022-07-22T12:48:54;6.30;;;4.32;;
7835;SDS011;3963;42.658;23.298;2022-07-22T12:51:25;6.20;;;4.18;;
7835;SDS011;3963;42.658;23.298;2022-07-22T12:53:51;9.85;;;4.45;;
7835;SDS011;3963;42.658;23.298;2022-07-22T12:56:19;9.23;;;4.28;;
7835;SDS011;3963;42.658;23.298;2022-07-22T12:58:46;14.07;;;5.38;;
7835;SDS011;3963;42.658;23.298;2022-07-22T13:01:13;8.88;;;5.13;;
7835;SDS011;3963;42.658;23.298;2022-07-22T13:03:40;9.05;;;5.15;;
7835;SDS011;3963;42.658;23.298;2022-07-22T13:06:08;18.92;;;5.28;;
7835;SDS011;3963;42.658;23.298;2022-07-22T13:08:36;6.65;;;4.38;;
7835;SDS011;3963;42.658;23.298;2022-07-22T13:11:03;6.13;;;4.00;;
7835;SDS011;3963;42.658;23.298;2022-07-22T13:13:30;6.50;;;4.60;;
7835;SDS011;3963;42.658;23.298;2022-07-22T13:15:57;6.32;;;4.03;;
7835;SDS011;3963;42.658;23.298;2022-07-22T13:18:24;7.57;;;4.00;;
7835;SDS011;3963;42.658;23.298;2022-07-22T13:20:50;5.03;;;4.32;;
7835;SDS011;3963;42.658;23.298;2022-07-22T13:23:19;6.30;;;4.13;;
7835;SDS011;3963;42.658;23.298;2022-07-22T13:25:45;5.50;;;3.90;;
7835;SDS011;3963;42.658;23.298;2022-07-22T13:28:12;5.85;;;3.80;;
7835;SDS011;3963;42.658;23.298;2022-07-22T13:30:39;6.15;;;3.63;;
7835;SDS011;3963;42.658;23.298;2022-07-22T13:33:06;4.65;;;4.03;;
7835;SDS011;3963;42.658;23.298;2022-07-22T13:35:33;8.88;;;4.07;;
7835;SDS011;3963;42.658;23.298;2022-07-22T13:38:00;8.30;;;4.03;;
7835;SDS011;3963;42.658;23.298;2022-07-22T13:40:29;6.32;;;3.83;;
7835;SDS011;3963;42.658;23.298;2022-07-22T13:42:56;6.15;;;4.32;;
7835;SDS011;3963;42.658;23.298;2022-07-22T13:45:23;5.90;;;3.65;;
7835;SDS011;3963;42.658;23.298;2022-07-22T13:47:50;7.68;;;4.53;;
7835;SDS011;3963;42.658;23.298;2022-07-22T13:50:17;4.60;;;3.97;;
7835;SDS011;3963;42.658;23.298;2022-07-22T13:52:44;5.65;;;4.07;;
7835;SDS011;3963;42.658;23.298;2022-07-22T13:55:12;7.20;;;4.25;;
7835;SDS011;3963;42.658;23.298;2022-07-22T13:57:41;5.20;;;4.20;;
7835;SDS011;3963;42.658;23.298;2022-07-22T14:00:08;7.57;;;4.65;;
7835;SDS011;3963;42.658;23.298;2022-07-22T14:02:36;7.18;;;4.65;;
7835;SDS011;3963;42.658;23.298;2022-07-22T14:05:04;6.97;;;4.00;;
7835;SDS011;3963;42.658;23.298;2022-07-22T14:07:31;7.47;;;4.43;;
7835;SDS011;3963;42.658;23.298;2022-07-22T14:09:58;5.82;;;4.22;;
7835;SDS011;3963;42.658;23.298;2022-07-22T14:12:25;8.00;;;5.22;;
7835;SDS011;3963;42.658;23.298;2022-07-22T14:14:53;8.48;;;4.20;;
7835;SDS011;3963;42.658;23.298;2022-07-22T14:17:20;10.82;;;4.50;;
7835;SDS011;3963;42.658;23.298;2022-07-22T14:19:46;5.57;;;4.30;;
7835;SDS011;3963;42.658;23.298;2022-07-22T14:22:13;27.40;;;5.43;;
7835;SDS011;3963;42.658;23.298;2022-07-22T14:24:40;7.50;;;4.68;;
7835;SDS011;3963;42.658;23.298;2022-07-22T14:27:07;13.93;;;5.35;;
7835;SDS011;3963;42.658;23.298;2022-07-22T14:29:34;9.20;;;3.85;;
7835;SDS011;3963;42.658;23.298;2022-07-22T14:32:02;7.80;;;4.53;;
7835;SDS011;3963;42.658;23.298;2022-07-22T14:34:29;4.78;;;4.03;;
7835;SDS011;3963;42.658;23.298;2022-07-22T14:36:56;6.55;;;4.50;;
7835;SDS011;3963;42.658;23.298;2022-07-22T14:39:23;10.20;;;5.40;;
7835;SDS011;3963;42.658;23.298;2022-07-22T14:41:50;5.93;;;4.82;;
7835;SDS011;3963;42.658;23.298;2022-07-22T14:44:18;6.85;;;4.65;;
7835;SDS011;3963;42.658;23.298;2022-07-22T14:46:44;5.70;;;4.40;;
7835;SDS011;3963;42.658;23.298;2022-07-22T14:49:13;6.53;;;3.70;;
7835;SDS011;3963;42.658;23.298;2022-07-22T14:51:40;6.55;;;4.53;;
7835;SDS011;3963;42.658;23.298;2022-07-22T14:54:07;6.15;;;4.40;;
7835;SDS011;3963;42.658;23.298;2022-07-22T14:56:36;6.00;;;3.85;;
7835;SDS011;3963;42.658;23.298;2022-07-22T14:59:03;13.18;;;4.72;;
7835;SDS011;3963;42.658;23.298;2022-07-22T15:01:30;6.07;;;4.72;;
7835;SDS011;3963;42.658;23.298;2022-07-22T15:03:57;5.90;;;3.97;;
7835;SDS011;3963;42.658;23.298;2022-07-22T15:06:25;6.95;;;3.95;;
7835;SDS011;3963;42.658;23.298;2022-07-22T15:08:52;8.50;;;4.45;;
7835;SDS011;3963;42.658;23.298;2022-07-22T15:11:19;9.77;;;4.32;;